Time,TemperatureF,DewpointF,PressureIn,WindDirection,WindDirectionDegrees,WindSpeedMPH,WindSpeedGustMPH,Humidity,HourlyPrecipIn,Conditions,Clouds,dailyrainin,SoftwareType,DateUTC
2013-10-19 00:01:00,43.2,40.8,29.98,NNE,15,0.0,0.0,91,0.00,,CLR,0.00,VWS V14.01,2013-10-19 04:01:00,
2013-10-19 00:02:00,43.1,40.7,29.98,NNE,14,2.0,2.0,91,0.00,,CLR,0.00,VWS V14.01,2013-10-19 04:02:00,
2013-10-19 00:07:00,43.1,40.7,29.97,NE,39,3.0,3.0,91,0.00,,CLR,0.00,VWS V14.01,2013-10-19 04:07:00,
2013-10-19 00:12:00,42.9,40.5,29.97,NNE,25,0.0,3.0,91,0.00,,CLR,0.00,VWS V14.01,2013-10-19 04:12:00,
2013-10-19 00:16:00,42.8,40.4,29.98,NNE,25,1.0,3.0,91,0.00,,CLR,0.00,VWS V14.01,2013-10-19 04:16:00,
2013-10-19 00:21:00,42.7,40.3,29.98,NNE,23,1.0,3.0,91,0.00,,CLR,0.00,VWS V14.01,2013-10-19 04:21:00,
2013-10-19 00:26:00,42.5,40.3,29.98,NNE,22,2.0,3.0,92,0.00,,CLR,0.00,VWS V14.01,2013-10-19 04:26:00,
2013-10-19 00:31:00,42.4,40.2,29.98,NNE,26,2.0,2.0,92,0.00,,CLR,0.00,VWS V14.01,2013-10-19 04:31:00,
2013-10-19 00:36:00,42.4,40.2,29.98,ENE,63,1.0,3.0,92,0.00,,CLR,0.00,VWS V14.01,2013-10-19 04:36:00,
2013-10-19 00:41:00,42.3,40.2,29.97,ENE,63,0.0,3.0,92,0.00,,CLR,0.00,VWS V14.01,2013-10-19 04:41:00,
2013-10-19 00:46:00,42.1,40.0,29.98,NE,42,0.0,3.0,92,0.00,,CLR,0.00,VWS V14.01,2013-10-19 04:46:00,
2013-10-19 00:51:00,41.9,39.8,29.97,NE,43,0.0,3.0,92,0.00,,CLR,0.00,VWS V14.01,2013-10-19 04:51:00,
2013-10-19 00:56:00,41.8,39.9,29.97,NE,39,2.0,3.0,93,0.00,,CLR,0.00,VWS V14.01,2013-10-19 04:56:00,
2013-10-19 01:01:00,41.7,39.8,29.98,NE,42,2.0,4.0,93,0.00,,CLR,0.00,VWS V14.01,2013-10-19 05:01:00,
2013-10-19 01:06:00,41.7,39.8,29.97,NNE,30,0.0,4.0,93,0.00,,CLR,0.00,VWS V14.01,2013-10-19 05:06:00,
2013-10-19 01:11:00,41.8,39.9,29.97,NNE,32,0.0,4.0,93,0.00,,CLR,0.00,VWS V14.01,2013-10-19 05:11:00,
2013-10-19 01:16:00,41.8,39.9,29.97,NNE,33,0.0,4.0,93,0.00,,CLR,0.00,VWS V14.01,2013-10-19 05:16:00,
2013-10-19 01:21:00,41.9,40.0,29.97,NNE,26,1.0,4.0,93,0.00,,CLR,0.00,VWS V14.01,2013-10-19 05:21:00,
2013-10-19 01:26:00,41.7,39.8,29.97,NNE,23,1.0,4.0,93,0.00,,CLR,0.00,VWS V14.01,2013-10-19 05:26:00,
2013-10-19 01:31:00,41.5,39.6,29.97,NNE,27,0.0,2.0,93,0.00,,CLR,0.00,VWS V14.01,2013-10-19 05:31:00,
2013-10-19 01:37:00,41.4,39.5,29.97,NE,43,1.0,2.0,93,0.00,,CLR,0.00,VWS V14.01,2013-10-19 05:37:00,
2013-10-19 01:42:00,41.2,39.3,29.97,NNE,20,0.0,2.0,93,0.00,,CLR,0.00,VWS V14.01,2013-10-19 05:42:00,
2013-10-19 01:47:00,41.0,39.1,29.97,NNE,20,0.0,2.0,93,0.00,,CLR,0.00,VWS V14.01,2013-10-19 05:47:00,
2013-10-19 01:52:00,40.8,38.9,29.97,NNE,23,0.0,2.0,93,0.00,,CLR,0.00,VWS V14.01,2013-10-19 05:52:00,
2013-10-19 01:57:00,40.7,38.8,29.97,NNE,23,0.0,2.0,93,0.00,,CLR,0.00,VWS V14.01,2013-10-19 05:57:00,
2013-10-19 02:02:00,40.6,39.0,29.97,NE,39,1.0,3.0,94,0.00,,CLR,0.00,VWS V14.01,2013-10-19 06:02:00,
2013-10-19 02:07:00,40.6,39.0,29.97,NE,49,1.0,3.0,94,0.00,,CLR,0.00,VWS V14.01,2013-10-19 06:07:00,
2013-10-19 02:12:00,40.5,38.9,29.97,North,6,0.0,3.0,94,0.00,,CLR,0.00,VWS V14.01,2013-10-19 06:12:00,
2013-10-19 02:17:00,40.4,38.8,29.97,North,1,0.0,3.0,94,0.00,,CLR,0.00,VWS V14.01,2013-10-19 06:17:00,
2013-10-19 02:22:00,40.2,38.6,29.97,North,1,0.0,3.0,94,0.00,,CLR,0.00,VWS V14.01,2013-10-19 06:22:00,
2013-10-19 02:27:00,40.1,38.5,29.97,NE,52,0.0,3.0,94,0.00,,CLR,0.00,VWS V14.01,2013-10-19 06:27:00,
2013-10-19 02:32:00,40.0,38.4,29.97,NNE,32,0.0,2.0,94,0.00,,CLR,0.00,VWS V14.01,2013-10-19 06:32:00,
2013-10-19 02:37:00,40.0,38.4,29.97,NNE,30,1.0,2.0,94,0.00,,CLR,0.00,VWS V14.01,2013-10-19 06:37:00,
2013-10-19 02:42:00,40.0,38.7,29.97,NNE,26,2.0,2.0,95,0.00,,CLR,0.00,VWS V14.01,2013-10-19 06:42:00,
2013-10-19 02:47:00,40.0,38.7,29.97,NNE,13,0.0,4.0,95,0.00,,CLR,0.00,VWS V14.01,2013-10-19 06:47:00,
2013-10-19 02:52:00,39.9,38.3,29.97,NNE,13,0.0,4.0,94,0.00,,CLR,0.00,VWS V14.01,2013-10-19 06:52:00,
2013-10-19 02:57:00,39.7,38.4,29.97,NNE,32,1.0,4.0,95,0.00,,CLR,0.00,VWS V14.01,2013-10-19 06:57:00,
2013-10-19 03:02:00,39.7,38.4,29.97,NNE,33,0.0,1.0,95,0.00,,CLR,0.00,VWS V14.01,2013-10-19 07:02:00,
2013-10-19 03:07:00,39.6,38.3,29.98,NE,36,0.0,1.0,95,0.00,,CLR,0.00,VWS V14.01,2013-10-19 07:07:00,
2013-10-19 03:12:00,39.5,38.2,29.98,NNE,33,0.0,3.0,95,0.00,,CLR,0.00,VWS V14.01,2013-10-19 07:12:00,
2013-10-19 03:17:00,39.4,38.1,29.97,NE,34,0.0,3.0,95,0.00,,CLR,0.00,VWS V14.01,2013-10-19 07:17:00,
2013-10-19 03:22:00,39.4,38.1,29.97,NE,39,0.0,3.0,95,0.00,,CLR,0.00,VWS V14.01,2013-10-19 07:22:00,
2013-10-19 03:27:00,39.3,38.0,29.97,NNE,27,0.0,3.0,95,0.00,,CLR,0.00,VWS V14.01,2013-10-19 07:27:00,
2013-10-19 03:32:00,39.3,38.0,29.97,NNE,27,1.0,1.0,95,0.00,,CLR,0.00,VWS V14.01,2013-10-19 07:32:00,
2013-10-19 03:37:00,39.4,38.1,29.97,NE,35,0.0,3.0,95,0.00,,CLR,0.00,VWS V14.01,2013-10-19 07:37:00,
2013-10-19 03:42:00,39.5,38.2,29.97,NE,36,0.0,3.0,95,0.00,,CLR,0.00,VWS V14.01,2013-10-19 07:42:00,
2013-10-19 03:47:00,39.5,38.2,29.97,NNE,31,2.0,4.0,95,0.00,,CLR,0.00,VWS V14.01,2013-10-19 07:47:00,
2013-10-19 03:52:00,39.5,38.2,29.97,NE,40,1.0,4.0,95,0.00,,CLR,0.00,VWS V14.01,2013-10-19 07:52:00,
2013-10-19 03:57:00,39.4,38.1,29.97,NE,43,0.0,4.0,95,0.00,,CLR,0.00,VWS V14.01,2013-10-19 07:57:00,
2013-10-19 04:02:00,39.2,37.9,29.97,NE,40,0.0,1.0,95,0.00,,CLR,0.00,VWS V14.01,2013-10-19 08:02:00,
2013-10-19 04:07:00,39.0,37.7,29.97,NE,39,0.0,1.0,95,0.00,,CLR,0.00,VWS V14.01,2013-10-19 08:07:00,
2013-10-19 04:12:00,38.7,37.4,29.97,NE,39,0.0,1.0,95,0.00,,CLR,0.00,VWS V14.01,2013-10-19 08:12:00,
2013-10-19 04:17:00,38.6,37.3,29.97,NE,39,0.0,1.0,95,0.00,,CLR,0.00,VWS V14.01,2013-10-19 08:17:00,
2013-10-19 04:22:00,38.7,37.4,29.97,NE,36,2.0,3.0,95,0.00,,CLR,0.00,VWS V14.01,2013-10-19 08:22:00,
2013-10-19 04:27:00,38.6,37.3,29.97,NNE,15,0.0,3.0,95,0.00,,CLR,0.00,VWS V14.01,2013-10-19 08:27:00,
2013-10-19 04:32:00,38.5,37.2,29.97,NNE,24,0.0,0.0,95,0.00,,CLR,0.00,VWS V14.01,2013-10-19 08:32:00,
2013-10-19 04:37:00,38.5,37.2,29.97,NNE,25,0.0,2.0,95,0.00,,CLR,0.00,VWS V14.01,2013-10-19 08:37:00,
2013-10-19 04:42:00,38.5,37.2,29.97,NE,34,0.0,2.0,95,0.00,,CLR,0.00,VWS V14.01,2013-10-19 08:42:00,
2013-10-19 04:46:00,38.4,37.1,29.97,NE,34,0.0,2.0,95,0.00,,CLR,0.00,VWS V14.01,2013-10-19 08:46:00,
2013-10-19 04:51:00,38.2,36.9,29.96,NE,34,0.0,2.0,95,0.00,,CLR,0.00,VWS V14.01,2013-10-19 08:51:00,
2013-10-19 04:56:00,38.0,36.7,29.96,NE,34,0.0,2.0,95,0.00,,CLR,0.00,VWS V14.01,2013-10-19 08:56:00,
2013-10-19 05:01:00,38.0,36.7,29.96,NNE,30,0.0,0.0,95,0.00,,CLR,0.00,VWS V14.01,2013-10-19 09:01:00,
2013-10-19 05:06:00,38.0,37.0,29.96,NE,39,0.0,2.0,96,0.00,,CLR,0.00,VWS V14.01,2013-10-19 09:06:00,
2013-10-19 05:11:00,38.0,37.0,29.96,NNE,31,0.0,3.0,96,0.00,,CLR,0.00,VWS V14.01,2013-10-19 09:11:00,
2013-10-19 05:16:00,38.0,37.0,29.96,NNE,26,0.0,3.0,96,0.00,,CLR,0.00,VWS V14.01,2013-10-19 09:16:00,
2013-10-19 05:21:00,38.0,37.0,29.96,NE,41,0.0,3.0,96,0.00,,CLR,0.00,VWS V14.01,2013-10-19 09:21:00,
2013-10-19 05:26:00,37.9,36.9,29.96,NNE,21,2.0,3.0,96,0.00,,CLR,0.00,VWS V14.01,2013-10-19 09:26:00,
2013-10-19 05:31:00,37.9,36.9,29.96,NE,36,0.0,2.0,96,0.00,,CLR,0.00,VWS V14.01,2013-10-19 09:31:00,
2013-10-19 05:36:00,37.8,36.5,29.96,NE,35,0.0,2.0,95,0.00,,CLR,0.00,VWS V14.01,2013-10-19 09:36:00,
2013-10-19 05:41:00,37.6,36.6,29.96,NNE,32,1.0,2.0,96,0.00,,CLR,0.00,VWS V14.01,2013-10-19 09:41:00,
2013-10-19 05:46:00,37.5,36.5,29.96,NNE,26,2.0,2.0,96,0.00,,CLR,0.00,VWS V14.01,2013-10-19 09:46:00,
2013-10-19 05:51:00,37.5,36.5,29.96,North,356,1.0,3.0,96,0.00,,CLR,0.00,VWS V14.01,2013-10-19 09:51:00,
2013-10-19 05:56:00,37.4,36.4,29.96,North,8,0.0,3.0,96,0.00,,CLR,0.00,VWS V14.01,2013-10-19 09:56:00,
2013-10-19 06:01:00,37.2,36.2,29.95,North,11,0.0,0.0,96,0.00,,CLR,0.00,VWS V14.01,2013-10-19 10:01:00,
2013-10-19 06:06:00,37.2,36.2,29.95,North,11,0.0,0.0,96,0.00,,CLR,0.00,VWS V14.01,2013-10-19 10:06:00,
2013-10-19 06:11:00,37.1,36.1,29.95,North,11,0.0,0.0,96,0.00,,CLR,0.00,VWS V14.01,2013-10-19 10:11:00,
2013-10-19 06:16:00,37.1,36.1,29.95,North,11,0.0,0.0,96,0.00,,CLR,0.00,VWS V14.01,2013-10-19 10:16:00,
2013-10-19 06:21:00,37.1,36.1,29.95,NNE,19,0.0,0.0,96,0.00,,CLR,0.00,VWS V14.01,2013-10-19 10:21:00,
2013-10-19 06:26:00,37.2,36.2,29.95,NNE,19,0.0,0.0,96,0.00,,CLR,0.00,VWS V14.01,2013-10-19 10:26:00,
2013-10-19 06:31:00,37.0,36.0,29.95,NNE,19,0.0,0.0,96,0.00,,CLR,0.00,VWS V14.01,2013-10-19 10:31:00,
2013-10-19 06:36:00,36.9,35.9,29.95,NNE,19,0.0,0.0,96,0.00,,CLR,0.00,VWS V14.01,2013-10-19 10:36:00,
2013-10-19 06:41:00,36.8,35.8,29.95,NNE,19,0.0,0.0,96,0.00,,CLR,0.00,VWS V14.01,2013-10-19 10:41:00,
2013-10-19 06:46:00,36.6,35.6,29.95,NNE,19,0.0,0.0,96,0.00,,CLR,0.00,VWS V14.01,2013-10-19 10:46:00,
2013-10-19 06:51:00,36.4,35.4,29.94,NNE,19,0.0,0.0,96,0.00,,CLR,0.00,VWS V14.01,2013-10-19 10:51:00,
2013-10-19 06:56:00,36.3,35.3,29.94,NNE,19,0.0,0.0,96,0.00,,CLR,0.00,VWS V14.01,2013-10-19 10:56:00,
2013-10-19 07:01:00,36.5,35.5,29.94,NNE,19,0.0,0.0,96,0.00,,SCT005,0.00,VWS V14.01,2013-10-19 11:01:00,
2013-10-19 07:06:00,36.5,35.5,29.94,NNE,19,0.0,0.0,96,0.00,,SCT005,0.00,VWS V14.01,2013-10-19 11:06:00,
2013-10-19 07:11:00,36.4,35.4,29.94,NNE,19,0.0,0.0,96,0.00,,SCT005,0.00,VWS V14.01,2013-10-19 11:11:00,
2013-10-19 07:16:00,36.4,35.6,29.94,NNE,19,0.0,0.0,97,0.00,,SCT005,0.00,VWS V14.01,2013-10-19 11:16:00,
2013-10-19 07:21:00,36.5,35.7,29.95,NNE,18,0.0,1.0,97,0.00,,SCT005,0.00,VWS V14.01,2013-10-19 11:21:00,
2013-10-19 07:26:00,36.6,35.8,29.95,NNE,17,0.0,1.0,97,0.00,,SCT005,0.00,VWS V14.01,2013-10-19 11:26:00,
2013-10-19 07:31:00,36.8,36.0,29.95,NNE,18,0.0,0.0,97,0.00,,BKN005,0.00,VWS V14.01,2013-10-19 11:31:00,
2013-10-19 07:36:00,37.2,36.4,29.95,NNE,18,0.0,0.0,97,0.00,,BKN005,0.00,VWS V14.01,2013-10-19 11:36:00,
2013-10-19 07:41:00,37.5,36.7,29.95,NNE,18,0.0,0.0,97,0.00,,BKN005,0.00,VWS V14.01,2013-10-19 11:41:00,
2013-10-19 07:46:00,37.8,37.0,29.95,NNE,18,0.0,0.0,97,0.00,,BKN005,0.00,VWS V14.01,2013-10-19 11:46:00,
2013-10-19 07:51:00,38.0,37.2,29.95,NNE,33,0.0,0.0,97,0.00,,BKN005,0.00,VWS V14.01,2013-10-19 11:51:00,
2013-10-19 07:56:00,38.1,37.3,29.95,ENE,61,0.0,0.0,97,0.00,,BKN005,0.00,VWS V14.01,2013-10-19 11:56:00,
2013-10-19 08:01:00,38.2,37.4,29.95,ENE,64,0.0,0.0,97,0.00,,SCT005,0.00,VWS V14.01,2013-10-19 12:01:00,
2013-10-19 08:06:00,38.3,37.5,29.95,East,82,0.0,0.0,97,0.00,,SCT005,0.00,VWS V14.01,2013-10-19 12:06:00,
2013-10-19 08:11:00,38.3,37.5,29.95,NE,54,0.0,0.0,97,0.00,,SCT005,0.00,VWS V14.01,2013-10-19 12:11:00,
2013-10-19 08:16:00,38.3,37.5,29.94,NE,52,0.0,2.0,97,0.00,,SCT005,0.00,VWS V14.01,2013-10-19 12:16:00,
2013-10-19 08:21:00,38.3,37.5,29.94,NE,52,0.0,2.0,97,0.00,,SCT005,0.00,VWS V14.01,2013-10-19 12:21:00,
2013-10-19 08:26:00,38.5,37.7,29.95,NE,52,1.0,2.0,97,0.00,,SCT005,0.00,VWS V14.01,2013-10-19 12:26:00,
2013-10-19 08:31:00,38.6,37.8,29.94,NE,44,0.0,2.0,97,0.00,,,0.00,VWS V14.01,2013-10-19 12:31:00,
2013-10-19 08:36:00,38.7,37.9,29.94,NE,44,1.0,2.0,97,0.00,,,0.00,VWS V14.01,2013-10-19 12:36:00,
2013-10-19 08:41:00,38.9,38.1,29.94,NE,44,0.0,2.0,97,0.00,,,0.00,VWS V14.01,2013-10-19 12:41:00,
2013-10-19 08:46:00,39.2,38.4,29.94,NE,44,0.0,2.0,97,0.00,,,0.00,VWS V14.01,2013-10-19 12:46:00,
2013-10-19 08:51:00,39.3,38.5,29.94,ENE,57,0.0,2.0,97,0.00,,,0.00,VWS V14.01,2013-10-19 12:51:00,
2013-10-19 08:56:00,39.5,38.7,29.94,ENE,57,1.0,2.0,97,0.00,,,0.00,VWS V14.01,2013-10-19 12:56:00,
2013-10-19 09:01:00,39.6,38.8,29.94,NE,42,0.0,1.0,97,0.00,,,0.00,VWS V14.01,2013-10-19 13:01:00,
2013-10-19 09:06:00,39.7,38.9,29.94,NE,43,1.0,1.0,97,0.00,,,0.00,VWS V14.01,2013-10-19 13:06:00,
2013-10-19 09:11:00,39.9,39.1,29.94,NE,43,0.0,1.0,97,0.00,,,0.00,VWS V14.01,2013-10-19 13:11:00,
2013-10-19 09:16:00,40.1,39.3,29.94,NNE,20,1.0,2.0,97,0.00,,,0.00,VWS V14.01,2013-10-19 13:16:00,
2013-10-19 09:21:00,40.0,39.2,29.95,NNE,25,0.0,2.0,97,0.00,,,0.00,VWS V14.01,2013-10-19 13:21:00,
2013-10-19 09:26:00,40.1,39.3,29.94,NNE,30,0.0,2.0,97,0.00,,,0.00,VWS V14.01,2013-10-19 13:26:00,
2013-10-19 09:31:00,40.0,39.2,29.95,NE,34,1.0,2.0,97,0.00,,,0.00,VWS V14.01,2013-10-19 13:31:00,
2013-10-19 09:36:00,40.1,39.3,29.94,NE,34,0.0,2.0,97,0.00,,,0.00,VWS V14.01,2013-10-19 13:36:00,
2013-10-19 09:41:00,40.3,39.5,29.95,East,85,1.0,2.0,97,0.00,,,0.00,VWS V14.01,2013-10-19 13:41:00,
2013-10-19 09:46:00,40.4,39.6,29.94,NNE,25,2.0,3.0,97,0.00,,,0.00,VWS V14.01,2013-10-19 13:46:00,
2013-10-19 09:51:00,40.5,39.7,29.94,NNE,31,0.0,3.0,97,0.00,,,0.00,VWS V14.01,2013-10-19 13:51:00,
2013-10-19 09:56:00,40.5,39.7,29.94,East,86,0.0,3.0,97,0.00,,,0.00,VWS V14.01,2013-10-19 13:56:00,
2013-10-19 10:01:00,40.7,39.9,29.93,SE,128,0.0,0.0,97,0.00,,,0.00,VWS V14.01,2013-10-19 14:01:00,
2013-10-19 10:06:00,41.3,40.8,29.93,ESE,105,1.0,1.0,98,0.00,,,0.00,VWS V14.01,2013-10-19 14:06:00,
2013-10-19 10:11:00,41.8,41.3,29.93,NNE,30,1.0,2.0,98,0.00,,,0.00,VWS V14.01,2013-10-19 14:11:00,
2013-10-19 10:16:00,41.9,41.1,29.93,NNE,30,0.0,2.0,97,0.00,,,0.00,VWS V14.01,2013-10-19 14:16:00,
2013-10-19 10:21:00,42.7,42.2,29.93,West,273,1.0,2.0,98,0.00,,,0.00,VWS V14.01,2013-10-19 14:21:00,
2013-10-19 10:26:00,43.4,42.9,29.93,WSW,252,1.0,2.0,98,0.00,,,0.00,VWS V14.01,2013-10-19 14:26:00,
2013-10-19 10:31:00,43.7,42.6,29.92,SSE,150,1.0,2.0,96,0.00,,,0.00,VWS V14.01,2013-10-19 14:31:00,
2013-10-19 10:36:00,44.2,43.1,29.92,SW,226,0.0,3.0,96,0.00,,,0.00,VWS V14.01,2013-10-19 14:36:00,
2013-10-19 10:41:00,45.1,43.8,29.92,SW,228,0.0,3.0,95,0.00,,,0.00,VWS V14.01,2013-10-19 14:41:00,
2013-10-19 10:46:00,45.7,44.1,29.92,ENE,67,0.0,3.0,94,0.00,,,0.00,VWS V14.01,2013-10-19 14:46:00,
2013-10-19 10:51:00,46.2,44.0,29.92,East,90,0.0,3.0,92,0.00,,,0.00,VWS V14.01,2013-10-19 14:51:00,
2013-10-19 10:56:00,46.6,44.1,29.91,East,96,2.0,3.0,91,0.00,,,0.00,VWS V14.01,2013-10-19 14:56:00,
2013-10-19 11:01:00,46.2,43.4,29.91,SW,224,0.0,0.0,90,0.00,,,0.00,VWS V14.01,2013-10-19 15:01:00,
2013-10-19 11:06:00,46.8,44.0,29.90,SW,219,1.0,2.0,90,0.00,,,0.00,VWS V14.01,2013-10-19 15:06:00,
2013-10-19 11:11:00,47.5,45.0,29.90,SW,222,1.0,3.0,91,0.00,,,0.00,VWS V14.01,2013-10-19 15:11:00,
2013-10-19 11:16:00,48.3,45.2,29.89,East,83,0.0,3.0,89,0.00,,,0.00,VWS V14.01,2013-10-19 15:16:00,
2013-10-19 11:21:00,48.3,44.6,29.90,East,91,2.0,5.0,87,0.00,,,0.00,VWS V14.01,2013-10-19 15:21:00,
2013-10-19 11:26:00,48.5,44.8,29.89,ENE,74,2.0,5.0,87,0.00,,,0.00,VWS V14.01,2013-10-19 15:26:00,
2013-10-19 11:31:00,49.3,45.3,29.89,SW,226,1.0,1.0,86,0.00,,,0.00,VWS V14.01,2013-10-19 15:31:00,
2013-10-19 11:36:00,50.0,45.7,29.89,SW,228,0.0,2.0,85,0.00,,,0.00,VWS V14.01,2013-10-19 15:36:00,
2013-10-19 11:41:00,50.5,45.8,29.88,SW,218,1.0,3.0,84,0.00,,,0.00,VWS V14.01,2013-10-19 15:41:00,
2013-10-19 11:46:00,51.1,46.4,29.88,SW,225,3.0,4.0,84,0.00,,,0.00,VWS V14.01,2013-10-19 15:46:00,
2013-10-19 11:51:00,51.9,46.9,29.88,ENE,74,0.0,4.0,83,0.00,,,0.00,VWS V14.01,2013-10-19 15:51:00,
2013-10-19 11:56:00,53.6,47.6,29.87,ESE,120,3.0,4.0,80,0.00,,,0.00,VWS V14.01,2013-10-19 15:56:00,
2013-10-19 12:01:00,55.4,48.3,29.86,SE,146,1.0,1.0,77,0.00,,SCT070,0.00,VWS V14.01,2013-10-19 16:01:00,
2013-10-19 12:06:00,56.4,47.9,29.87,SW,229,4.0,6.0,73,0.00,,SCT070,0.00,VWS V14.01,2013-10-19 16:06:00,
2013-10-19 12:11:00,56.9,47.6,29.87,ESE,120,3.0,6.0,71,0.00,,SCT070,0.00,VWS V14.01,2013-10-19 16:11:00,
2013-10-19 12:16:00,57.6,45.9,29.86,SW,218,3.0,6.0,65,0.00,,SCT070,0.00,VWS V14.01,2013-10-19 16:16:00,
2013-10-19 12:21:00,58.0,45.5,29.86,South,174,4.0,7.0,63,0.00,,SCT070,0.00,VWS V14.01,2013-10-19 16:21:00,
2013-10-19 12:26:00,58.0,45.5,29.85,NW,319,0.0,7.0,63,0.00,,SCT070,0.00,VWS V14.01,2013-10-19 16:26:00,
2013-10-19 12:31:00,58.4,45.9,29.85,NNW,337,0.0,0.0,63,0.00,,SCT070,0.00,VWS V14.01,2013-10-19 16:31:00,
2013-10-19 12:36:00,58.6,45.6,29.86,SW,215,0.0,2.0,62,0.00,,SCT070,0.00,VWS V14.01,2013-10-19 16:36:00,
2013-10-19 12:41:00,58.7,45.3,29.86,NNE,29,5.0,5.0,61,0.00,,SCT070,0.00,VWS V14.01,2013-10-19 16:41:00,
2013-10-19 12:46:00,58.6,45.6,29.85,WNW,297,0.0,6.0,62,0.00,,SCT070,0.00,VWS V14.01,2013-10-19 16:46:00,
2013-10-19 12:51:00,58.4,45.9,29.85,WNW,284,3.0,8.0,63,0.00,,SCT070,0.00,VWS V14.01,2013-10-19 16:51:00,
2013-10-19 12:56:00,58.1,46.0,29.84,NNW,344,1.0,8.0,64,0.00,,SCT070,0.00,VWS V14.01,2013-10-19 16:56:00,
2013-10-19 13:01:00,57.9,45.8,29.84,East,92,1.0,2.0,64,0.00,,BKN085,0.00,VWS V14.01,2013-10-19 17:01:00,
2013-10-19 13:06:00,57.9,46.2,29.85,SW,223,1.0,2.0,65,0.00,,BKN085,0.00,VWS V14.01,2013-10-19 17:06:00,
2013-10-19 13:11:00,57.6,45.9,29.84,NE,46,0.0,5.0,65,0.00,,BKN085,0.00,VWS V14.01,2013-10-19 17:11:00,
2013-10-19 13:16:00,57.6,46.7,29.84,WSW,253,0.0,5.0,67,0.00,,BKN085,0.00,VWS V14.01,2013-10-19 17:16:00,
2013-10-19 13:21:00,57.5,46.6,29.83,WNW,285,0.0,5.0,67,0.00,,BKN085,0.00,VWS V14.01,2013-10-19 17:21:00,
2013-10-19 13:26:00,57.5,46.6,29.82,WSW,243,0.0,5.0,67,0.00,,BKN085,0.00,VWS V14.01,2013-10-19 17:26:00,
2013-10-19 13:31:00,57.5,47.0,29.82,WSW,237,0.0,0.0,68,0.00,,BKN085,0.00,VWS V14.01,2013-10-19 17:31:00,
2013-10-19 13:36:00,57.5,47.4,29.82,East,86,0.0,0.0,69,0.00,,BKN085,0.00,VWS V14.01,2013-10-19 17:36:00,
2013-10-19 13:41:00,57.4,47.7,29.81,SSE,165,1.0,3.0,70,0.00,,BKN085,0.00,VWS V14.01,2013-10-19 17:41:00,
2013-10-19 13:46:00,57.3,47.6,29.80,NE,51,1.0,3.0,70,0.00,,BKN085,0.00,VWS V14.01,2013-10-19 17:46:00,
2013-10-19 13:51:00,57.0,47.3,29.80,ESE,103,1.0,4.0,70,0.00,,BKN085,0.00,VWS V14.01,2013-10-19 17:51:00,
2013-10-19 13:56:00,56.8,47.9,29.80,West,269,0.0,4.0,72,0.00,,BKN085,0.00,VWS V14.01,2013-10-19 17:56:00,
2013-10-19 14:01:00,56.7,48.2,29.79,NE,46,1.0,2.0,73,0.00,,-RA,0.00,VWS V14.01,2013-10-19 18:01:00,
2013-10-19 14:06:00,56.6,48.1,29.79,WNW,300,2.0,3.0,73,0.00,,-RA,0.00,VWS V14.01,2013-10-19 18:06:00,
2013-10-19 14:11:00,56.7,48.5,29.79,West,279,0.0,3.0,74,0.00,,-RA,0.00,VWS V14.01,2013-10-19 18:11:00,
2013-10-19 14:16:00,56.7,48.2,29.79,East,83,2.0,5.0,73,0.00,,-RA,0.00,VWS V14.01,2013-10-19 18:16:00,
2013-10-19 14:21:00,56.7,48.9,29.79,WSW,245,0.0,5.0,75,0.00,,-RA,0.00,VWS V14.01,2013-10-19 18:21:00,
2013-10-19 14:26:00,56.7,48.5,29.79,WNW,289,2.0,7.0,74,0.00,,-RA,0.00,VWS V14.01,2013-10-19 18:26:00,
2013-10-19 14:31:00,56.7,48.5,29.79,SSW,207,4.0,5.0,74,0.00,,-RA,0.00,VWS V14.01,2013-10-19 18:31:00,
2013-10-19 14:36:00,56.7,48.9,29.78,SW,214,1.0,6.0,75,0.00,,-RA,0.00,VWS V14.01,2013-10-19 18:36:00,
2013-10-19 14:41:00,56.7,48.9,29.78,SW,215,0.0,6.0,75,0.00,,-RA,0.00,VWS V14.01,2013-10-19 18:41:00,
2013-10-19 14:46:00,56.8,49.0,29.78,SSW,212,0.0,6.0,75,0.00,,-RA,0.00,VWS V14.01,2013-10-19 18:46:00,
2013-10-19 14:51:00,56.9,49.1,29.77,ENE,77,3.0,6.0,75,0.00,,-RA,0.00,VWS V14.01,2013-10-19 18:51:00,
2013-10-19 14:56:00,57.0,49.5,29.77,WSW,246,0.0,6.0,76,0.00,,-RA,0.00,VWS V14.01,2013-10-19 18:56:00,
2013-10-19 15:01:00,57.0,49.2,29.77,SW,218,0.0,0.0,75,0.00,,-RA,0.00,VWS V14.01,2013-10-19 19:01:00,
2013-10-19 15:06:00,57.1,49.6,29.78,SSW,211,2.0,4.0,76,0.00,,-RA,0.00,VWS V14.01,2013-10-19 19:06:00,
2013-10-19 15:11:00,57.0,49.5,29.77,East,86,2.0,6.0,76,0.00,,-RA,0.00,VWS V14.01,2013-10-19 19:11:00,
2013-10-19 15:16:00,56.9,49.4,29.77,SW,218,2.0,6.0,76,0.00,,-RA,0.00,VWS V14.01,2013-10-19 19:16:00,
2013-10-19 15:21:00,56.8,49.3,29.76,SSE,156,0.0,7.0,76,0.00,,-RA,0.00,VWS V14.01,2013-10-19 19:21:00,
2013-10-19 15:25:00,56.9,49.4,29.77,SSE,166,3.0,7.0,76,0.00,,-RA,0.00,VWS V14.01,2013-10-19 19:25:00,
2013-10-19 15:30:00,56.9,49.4,29.77,East,95,3.0,3.0,76,0.00,,-RA,0.00,VWS V14.01,2013-10-19 19:30:00,
2013-10-19 15:35:00,57.0,49.5,29.77,SW,236,0.0,6.0,76,0.00,,-RA,0.00,VWS V14.01,2013-10-19 19:35:00,
2013-10-19 15:40:00,57.0,49.5,29.77,WNW,290,1.0,6.0,76,0.00,,-RA,0.00,VWS V14.01,2013-10-19 19:40:00,
2013-10-19 15:45:00,57.0,49.5,29.77,West,281,3.0,6.0,76,0.00,,-RA,0.00,VWS V14.01,2013-10-19 19:45:00,
2013-10-19 15:50:00,57.0,49.9,29.77,WNW,284,0.0,6.0,77,0.01,,-RA,0.01,VWS V14.01,2013-10-19 19:50:00,
2013-10-19 15:55:00,56.8,50.4,29.76,West,267,1.0,6.0,79,0.01,,-RA,0.01,VWS V14.01,2013-10-19 19:55:00,
2013-10-19 16:00:00,56.5,50.1,29.76,West,276,1.0,1.0,79,0.01,,OVC100,0.01,VWS V14.01,2013-10-19 20:00:00,
2013-10-19 16:05:00,56.4,50.7,29.76,West,279,0.0,1.0,81,0.02,,OVC100,0.02,VWS V14.01,2013-10-19 20:05:00,
2013-10-19 16:10:00,56.2,50.5,29.75,West,280,0.0,1.0,81,0.02,,OVC100,0.02,VWS V14.01,2013-10-19 20:10:00,
2013-10-19 16:15:00,56.1,50.7,29.75,West,280,0.0,1.0,82,0.02,,OVC100,0.02,VWS V14.01,2013-10-19 20:15:00,
2013-10-19 16:20:00,56.0,50.9,29.75,NNE,27,0.0,1.0,83,0.02,,OVC100,0.02,VWS V14.01,2013-10-19 20:20:00,
2013-10-19 16:25:00,55.8,51.0,29.75,SSW,204,5.0,7.0,84,0.02,,OVC100,0.02,VWS V14.01,2013-10-19 20:25:00,
2013-10-19 16:30:00,55.9,50.5,29.76,WNW,294,2.0,2.0,82,0.02,,OVC100,0.02,VWS V14.01,2013-10-19 20:30:00,
2013-10-19 16:35:00,55.8,50.4,29.75,NW,304,2.0,7.0,82,0.03,,OVC100,0.03,VWS V14.01,2013-10-19 20:35:00,
2013-10-19 16:40:00,55.8,50.7,29.75,SW,235,0.0,7.0,83,0.03,,OVC100,0.03,VWS V14.01,2013-10-19 20:40:00,
2013-10-19 16:45:00,55.7,50.6,29.75,NNW,330,2.0,7.0,83,0.03,,OVC100,0.03,VWS V14.01,2013-10-19 20:45:00,
2013-10-19 16:50:00,55.5,50.8,29.75,WNW,291,3.0,7.0,84,0.04,,OVC100,0.04,VWS V14.01,2013-10-19 20:50:00,
2013-10-19 16:55:00,55.3,50.6,29.75,WNW,287,3.0,7.0,84,0.04,,OVC100,0.04,VWS V14.01,2013-10-19 20:55:00,
2013-10-19 17:00:00,55.3,51.2,29.75,West,280,0.0,1.0,86,0.04,,-RA,0.05,VWS V14.01,2013-10-19 21:00:00,
2013-10-19 17:05:00,54.9,51.1,29.75,West,279,0.0,1.0,87,0.04,,-RA,0.05,VWS V14.01,2013-10-19 21:05:00,
2013-10-19 17:10:00,54.6,51.4,29.75,West,279,0.0,1.0,89,0.06,,-RA,0.07,VWS V14.01,2013-10-19 21:10:00,
2013-10-19 17:15:00,54.4,51.5,29.74,WSW,248,0.0,1.0,90,0.07,,-RA,0.08,VWS V14.01,2013-10-19 21:15:00,
2013-10-19 17:20:00,54.3,51.7,29.75,SW,228,2.0,2.0,91,0.08,,-RA,0.09,VWS V14.01,2013-10-19 21:20:00,
2013-10-19 17:25:00,54.0,51.7,29.75,WSW,250,1.0,3.0,92,0.08,,-RA,0.09,VWS V14.01,2013-10-19 21:25:00,
2013-10-19 17:30:00,53.8,51.5,29.75,West,266,0.0,1.0,92,0.08,,-RA,0.10,VWS V14.01,2013-10-19 21:30:00,
2013-10-19 17:35:00,53.8,51.2,29.75,ESE,115,0.0,5.0,91,0.08,,-RA,0.10,VWS V14.01,2013-10-19 21:35:00,
2013-10-19 17:40:00,54.0,51.1,29.75,SW,226,1.0,5.0,90,0.11,,-RA,0.13,VWS V14.01,2013-10-19 21:40:00,
2013-10-19 17:45:00,53.9,51.3,29.75,SSW,200,0.0,5.0,91,0.12,,-RA,0.14,VWS V14.01,2013-10-19 21:45:00,
2013-10-19 17:50:00,53.8,51.2,29.75,WNW,287,0.0,5.0,91,0.14,,-RA,0.16,VWS V14.01,2013-10-19 21:50:00,
2013-10-19 17:55:00,53.6,51.3,29.75,West,273,2.0,5.0,92,0.14,,-RA,0.16,VWS V14.01,2013-10-19 21:55:00,
2013-10-19 18:00:00,53.5,51.2,29.75,WNW,292,3.0,3.0,92,0.12,,RA,0.16,VWS V14.01,2013-10-19 22:00:00,
2013-10-19 18:05:00,53.6,51.3,29.75,WNW,284,0.0,5.0,92,0.12,,RA,0.16,VWS V14.01,2013-10-19 22:05:00,
2013-10-19 18:10:00,53.6,51.3,29.75,SW,235,0.0,5.0,92,0.12,,RA,0.16,VWS V14.01,2013-10-19 22:10:00,
2013-10-19 18:15:00,53.6,51.3,29.75,SE,125,0.0,5.0,92,0.12,,RA,0.16,VWS V14.01,2013-10-19 22:15:00,
2013-10-19 18:20:00,53.5,51.5,29.74,SSW,197,0.0,5.0,93,0.12,,RA,0.16,VWS V14.01,2013-10-19 22:20:00,
2013-10-19 18:25:00,53.4,51.4,29.74,West,261,0.0,5.0,93,0.12,,RA,0.16,VWS V14.01,2013-10-19 22:25:00,
2013-10-19 18:30:00,53.5,51.5,29.74,East,96,3.0,3.0,93,0.06,,-RA,0.16,VWS V14.01,2013-10-19 22:30:00,
2013-10-19 18:35:00,53.7,51.4,29.75,NNW,334,0.0,4.0,92,0.06,,-RA,0.16,VWS V14.01,2013-10-19 22:35:00,
2013-10-19 18:40:00,53.8,51.5,29.74,NE,46,2.0,4.0,92,0.06,,-RA,0.16,VWS V14.01,2013-10-19 22:40:00,
2013-10-19 18:45:00,53.7,51.4,29.75,North,9,0.0,5.0,92,0.06,,-RA,0.16,VWS V14.01,2013-10-19 22:45:00,
2013-10-19 18:50:00,53.5,51.5,29.75,NNE,15,0.0,5.0,93,0.06,,-RA,0.16,VWS V14.01,2013-10-19 22:50:00,
2013-10-19 18:55:00,53.4,51.4,29.74,West,281,0.0,5.0,93,0.06,,-RA,0.16,VWS V14.01,2013-10-19 22:55:00,
2013-10-19 19:00:00,53.3,51.6,29.75,West,281,0.0,0.0,94,0.00,,-RA,0.16,VWS V14.01,2013-10-19 23:00:00,
2013-10-19 19:05:00,53.2,51.5,29.75,West,281,0.0,0.0,94,0.00,,-RA,0.16,VWS V14.01,2013-10-19 23:05:00,
2013-10-19 19:10:00,53.1,51.4,29.75,West,281,0.0,0.0,94,0.00,,-RA,0.16,VWS V14.01,2013-10-19 23:10:00,
2013-10-19 19:15:00,53.0,51.3,29.75,West,281,0.0,0.0,94,0.00,,-RA,0.16,VWS V14.01,2013-10-19 23:15:00,
2013-10-19 19:20:00,53.0,51.3,29.75,West,281,0.0,0.0,94,0.00,,-RA,0.16,VWS V14.01,2013-10-19 23:20:00,
2013-10-19 19:25:00,52.9,51.5,29.75,West,281,0.0,1.0,95,0.00,,-RA,0.16,VWS V14.01,2013-10-19 23:25:00,
2013-10-19 19:30:00,52.8,51.4,29.75,West,281,0.0,0.0,95,0.01,,-RA,0.17,VWS V14.01,2013-10-19 23:30:00,
2013-10-19 19:35:00,52.8,51.4,29.75,West,281,0.0,1.0,95,0.01,,-RA,0.17,VWS V14.01,2013-10-19 23:35:00,
2013-10-19 19:40:00,52.7,51.3,29.75,West,281,0.0,1.0,95,0.01,,-RA,0.17,VWS V14.01,2013-10-19 23:40:00,
2013-10-19 19:45:00,52.7,51.3,29.75,ENE,71,0.0,1.0,95,0.01,,-RA,0.17,VWS V14.01,2013-10-19 23:45:00,
2013-10-19 19:50:00,52.8,51.7,29.74,NNW,342,0.0,1.0,96,0.01,,-RA,0.17,VWS V14.01,2013-10-19 23:50:00,
2013-10-19 19:55:00,52.7,51.6,29.74,NE,39,0.0,1.0,96,0.01,,-RA,0.17,VWS V14.01,2013-10-19 23:55:00,
2013-10-19 20:00:00,52.6,51.5,29.73,East,98,1.0,1.0,96,0.01,,-RA,0.17,VWS V14.01,2013-10-20 00:00:00,
2013-10-19 20:05:00,52.6,51.5,29.72,East,95,0.0,3.0,96,0.01,,-RA,0.17,VWS V14.01,2013-10-20 00:05:00,
2013-10-19 20:10:00,52.5,51.4,29.71,East,79,2.0,3.0,96,0.01,,-RA,0.17,VWS V14.01,2013-10-20 00:10:00,
2013-10-19 20:15:00,52.4,51.3,29.72,ESE,102,0.0,3.0,96,0.01,,-RA,0.17,VWS V14.01,2013-10-20 00:15:00,
2013-10-19 20:20:00,52.3,51.2,29.73,ESE,103,0.0,3.0,96,0.01,,-RA,0.17,VWS V14.01,2013-10-20 00:20:00,
2013-10-19 20:25:00,52.3,51.2,29.73,NNE,33,1.0,3.0,96,0.01,,-RA,0.17,VWS V14.01,2013-10-20 00:25:00,
2013-10-19 20:30:00,52.4,51.3,29.73,NNE,25,0.0,0.0,96,0.00,,-RA,0.17,VWS V14.01,2013-10-20 00:30:00,
2013-10-19 20:35:00,52.3,51.2,29.74,North,354,0.0,1.0,96,0.00,,-RA,0.17,VWS V14.01,2013-10-20 00:35:00,
2013-10-19 20:40:00,52.1,51.0,29.74,North,354,0.0,1.0,96,0.00,,-RA,0.17,VWS V14.01,2013-10-20 00:40:00,
2013-10-19 20:45:00,51.9,50.8,29.74,North,354,0.0,1.0,96,0.00,,-RA,0.17,VWS V14.01,2013-10-20 00:45:00,
2013-10-19 20:50:00,51.9,51.1,29.75,West,280,0.0,1.0,97,0.00,,-RA,0.17,VWS V14.01,2013-10-20 00:50:00,
2013-10-19 20:55:00,51.8,51.0,29.75,West,280,0.0,1.0,97,0.00,,-RA,0.17,VWS V14.01,2013-10-20 00:55:00,
2013-10-19 21:00:00,51.6,50.8,29.75,West,280,0.0,1.0,97,0.00,,BKN100,0.17,VWS V14.01,2013-10-20 01:00:00,
2013-10-19 21:05:00,51.4,50.6,29.75,West,278,0.0,0.0,97,0.00,,BKN100,0.17,VWS V14.01,2013-10-20 01:05:00,
2013-10-19 21:10:00,51.4,50.6,29.75,West,278,0.0,0.0,97,0.00,,BKN100,0.17,VWS V14.01,2013-10-20 01:10:00,
2013-10-19 21:15:00,51.4,50.6,29.75,West,278,0.0,0.0,97,0.00,,BKN100,0.17,VWS V14.01,2013-10-20 01:15:00,
2013-10-19 21:20:00,51.4,50.6,29.75,WSW,257,0.0,0.0,97,0.00,,BKN100,0.17,VWS V14.01,2013-10-20 01:20:00,
2013-10-19 21:25:00,51.2,50.4,29.75,WSW,257,0.0,0.0,97,0.00,,BKN100,0.17,VWS V14.01,2013-10-20 01:25:00,
2013-10-19 21:30:00,51.2,50.4,29.75,WSW,257,0.0,0.0,97,0.00,,BKN100,0.17,VWS V14.01,2013-10-20 01:30:00,
2013-10-19 21:35:00,51.2,50.4,29.75,WSW,257,0.0,0.0,97,0.00,,BKN100,0.17,VWS V14.01,2013-10-20 01:35:00,
2013-10-19 21:40:00,51.2,50.7,29.76,West,263,0.0,0.0,98,0.00,,BKN100,0.17,VWS V14.01,2013-10-20 01:40:00,
2013-10-19 21:45:00,51.2,50.4,29.76,West,281,0.0,0.0,97,0.00,,BKN100,0.17,VWS V14.01,2013-10-20 01:45:00,
2013-10-19 21:50:00,51.2,50.4,29.76,West,278,1.0,6.0,97,0.00,,BKN100,0.17,VWS V14.01,2013-10-20 01:50:00,
2013-10-19 21:55:00,51.4,50.6,29.76,West,278,1.0,6.0,97,0.00,,BKN100,0.17,VWS V14.01,2013-10-20 01:55:00,
2013-10-19 22:00:00,51.5,50.7,29.77,WNW,285,3.0,6.0,97,0.00,,,0.17,VWS V14.01,2013-10-20 02:00:00,
2013-10-19 22:05:00,51.8,50.4,29.77,NW,319,6.0,9.0,95,0.00,,,0.17,VWS V14.01,2013-10-20 02:05:00,
2013-10-19 22:10:00,52.1,49.8,29.77,WNW,302,8.0,12.0,92,0.00,,,0.17,VWS V14.01,2013-10-20 02:10:00,
2013-10-19 22:15:00,52.2,49.7,29.77,WNW,294,7.0,14.0,91,0.00,,,0.17,VWS V14.01,2013-10-20 02:15:00,
2013-10-19 22:20:00,52.4,49.0,29.77,WNW,299,3.0,15.0,88,0.00,,,0.17,VWS V14.01,2013-10-20 02:20:00,
2013-10-19 22:25:00,52.5,48.1,29.77,West,280,11.0,20.0,85,0.00,,,0.17,VWS V14.01,2013-10-20 02:25:00,
2013-10-19 22:30:00,52.5,47.8,29.77,West,281,6.0,20.0,84,0.00,,,0.17,VWS V14.01,2013-10-20 02:30:00,
2013-10-19 22:35:00,52.6,47.9,29.78,West,276,5.0,12.0,84,0.00,,,0.17,VWS V14.01,2013-10-20 02:35:00,
2013-10-19 22:40:00,52.3,47.6,29.78,WNW,286,7.0,13.0,84,0.00,,,0.17,VWS V14.01,2013-10-20 02:40:00,
2013-10-19 22:45:00,52.1,47.4,29.78,West,281,6.0,15.0,84,0.00,,,0.17,VWS V14.01,2013-10-20 02:45:00,
2013-10-19 22:50:00,52.0,47.0,29.79,WNW,296,10.0,18.0,83,0.00,,,0.17,VWS V14.01,2013-10-20 02:50:00,
2013-10-19 22:55:00,51.9,46.9,29.79,WNW,293,13.0,18.0,83,0.00,,,0.17,VWS V14.01,2013-10-20 02:55:00,
2013-10-19 23:00:00,51.8,46.5,29.79,NW,309,8.0,18.0,82,0.00,,FEW049,0.17,VWS V14.01,2013-10-20 03:00:00,
2013-10-19 23:05:00,51.6,46.0,29.79,WNW,286,6.0,15.0,81,0.00,,FEW049,0.17,VWS V14.01,2013-10-20 03:05:00,
2013-10-19 23:10:00,51.5,45.9,29.79,NW,308,10.0,15.0,81,0.00,,FEW049,0.17,VWS V14.01,2013-10-20 03:10:00,
2013-10-19 23:15:00,51.3,45.7,29.79,WNW,291,6.0,15.0,81,0.00,,FEW049,0.17,VWS V14.01,2013-10-20 03:15:00,
2013-10-19 23:20:00,51.1,45.5,29.79,WNW,286,8.0,16.0,81,0.00,,FEW049,0.17,VWS V14.01,2013-10-20 03:20:00,
2013-10-19 23:25:00,51.0,44.7,29.79,West,264,12.0,21.0,79,0.00,,FEW049,0.17,VWS V14.01,2013-10-20 03:25:00,
2013-10-19 23:30:00,51.0,44.0,29.79,NW,323,10.0,21.0,77,0.00,,FEW049,0.17,VWS V14.01,2013-10-20 03:30:00,
2013-10-19 23:35:00,50.9,43.6,29.80,SW,233,5.0,12.0,76,0.00,,FEW049,0.17,VWS V14.01,2013-10-20 03:35:00,
2013-10-19 23:40:00,50.8,43.5,29.80,NW,304,12.0,17.0,76,0.00,,FEW049,0.17,VWS V14.01,2013-10-20 03:40:00,
2013-10-19 23:45:00,50.7,43.1,29.80,WNW,283,8.0,22.0,75,0.00,,FEW049,0.17,VWS V14.01,2013-10-20 03:45:00,
2013-10-19 23:50:00,50.5,42.9,29.80,WNW,290,6.0,22.0,75,0.00,,FEW049,0.17,VWS V14.01,2013-10-20 03:50:00,
2013-10-19 23:55:00,50.4,42.8,29.81,West,266,5.0,22.0,75,0.00,,FEW049,0.17,VWS V14.01,2013-10-20 03:55:00,